To NAV CANADA Home Page Login to a new session Search on AWWS site Feedback and Comments Disclaimer Vers la page française équivalente Tips FAQ What's new on the site To the Forecasts and Observations / NOTAM section To "File a Flight Plan" website Publications and other links Update of the User's profile FIC Telephone Numbers My Weather Data Folder Route Weather Data Regional Weather Data Local Weather Data To the Forecasts and Observations / NOTAM section
Request Generated 08/05/2015 at 06:24:48 UTC . Weather information available at that time is displayed.

METAR/TAF

NATASHQUAN/QC    (show WxCam)

METAR CYNA 050600Z AUTO 18006KT 9SM OVC018 17/16 A2971 RMK SLP062
DENSITY ALT 500FT=
SPECI CYNA 050511Z AUTO 16005KT 8SM BKN018 BKN170 BKN230 16/16 A2973
RMK SLP067 DENSITY ALT 400FT=
METAR CYNA 050500Z AUTO 16006KT 7SM FEW018 16/16 A2974 RMK SLP069
DENSITY ALT 400FT=
SPECI CYNA 050457Z AUTO 16005KT 6SM BR CLR 16/16 A2974 RMK SLP069
DENSITY ALT 300FT=
SPECI CYNA 050417Z AUTO 15006KT 5SM BR SCT002 SCT007 16/16 A2974 RMK
SLP069 DENSITY ALT 300FT=
SPECI CYNA 050413Z AUTO 15008KT 5SM BR SCT002 BKN007 16/16 A2974 RMK
SLP069 DENSITY ALT 300FT=
SPECI CYNA 050402Z AUTO 15011KT 3SM BR BKN002 OVC007 16/15 A2974 RMK
SLP070 DENSITY ALT 300FT=
SPECI CYNA 050401Z AUTO 15011KT 2 1/4SM BR OVC002 16/15 A2974 RMK
SLP070 DENSITY ALT 300FT=
METAR CYNA 050400Z AUTO 16010KT 1 3/4SM BR OVC002 16/15 A2974 RMK
SLP070 DENSITY ALT 300FT=
SPECI CYNA 050359Z AUTO 15010KT 1 1/4SM BR VV002 16/16 A2974 RMK
SLP069 DENSITY ALT 300FT=

TAF AMD CYNA 050610Z 0506/0514 18008KT 2SM -SHRA BR OVC004 TEMPO
0506/0509 6SM BR FEW004 BKN010 PROB30 0506/0509 2SM TSRA BR
BKN005 OVC010CB
FM050900 18008KT 2SM -SHRA BR OVC003 TEMPO 0509/0514 6SM BR
SCT003 OVC008
BECMG 0512/0514 22010KT
RMK FCST BASED ON AUTO OBS. NXT FCST BY 050800Z=
Your time UTC time
Weather data provided by Environment Canada and NAV CANADA